createdAt,value
2023-01-21T00:05:40.505Z,-1.27
2023-01-21T00:11:13.983Z,-1.27
2023-01-21T00:16:45.022Z,-1.29
2023-01-21T00:22:16.126Z,-1.30
2023-01-21T00:27:47.419Z,-1.30
2023-01-21T00:33:18.569Z,-1.29
2023-01-21T00:38:49.786Z,-1.29
2023-01-21T00:44:20.888Z,-1.30
2023-01-21T00:49:52.003Z,-1.30
2023-01-21T00:55:23.136Z,-1.31
2023-01-21T01:01:20.879Z,-1.31
2023-01-21T01:06:52.251Z,-1.34
2023-01-21T01:12:23.544Z,-1.34
2023-01-21T01:17:54.816Z,-1.33
2023-01-21T01:23:25.942Z,-1.35
2023-01-21T01:28:56.887Z,-1.35
2023-01-21T01:34:28.050Z,-1.35
2023-01-21T01:39:59.254Z,-1.36
2023-01-21T01:45:30.253Z,-1.38
2023-01-21T01:51:02.133Z,-1.38
2023-01-21T01:56:33.128Z,-1.40
2023-01-21T02:02:06.135Z,-1.40
2023-01-21T02:07:39.660Z,-1.41
2023-01-21T02:13:10.767Z,-1.42
2023-01-21T02:18:48.024Z,-1.41
2023-01-21T02:24:33.963Z,-1.43
2023-01-21T02:30:19.915Z,-1.43
2023-01-21T02:35:53.519Z,-1.44
2023-01-21T02:41:43.241Z,-1.44
2023-01-21T02:47:27.135Z,-1.44
2023-01-21T02:52:58.294Z,-1.45
2023-01-21T02:58:29.741Z,-1.45
2023-01-21T03:04:08.245Z,-1.45
2023-01-21T03:09:39.432Z,-1.45
2023-01-21T03:15:29.128Z,-1.45
2023-01-21T03:21:04.344Z,-1.46
2023-01-21T03:26:39.547Z,-1.48
2023-01-21T03:32:11.625Z,-1.49
2023-01-21T03:37:44.090Z,-1.50
2023-01-21T03:43:14.934Z,-1.49
2023-01-21T03:48:58.374Z,-1.48
2023-01-21T03:54:29.521Z,-1.50
2023-01-21T04:00:00.724Z,-1.53
2023-01-21T04:05:31.699Z,-1.53
2023-01-21T04:11:02.843Z,-1.56
2023-01-21T04:16:33.624Z,-1.57
2023-01-21T04:22:04.711Z,-1.57
2023-01-21T04:27:35.846Z,-1.58
2023-01-21T04:33:06.953Z,-1.58
2023-01-21T04:38:39.936Z,-1.58
2023-01-21T04:44:11.025Z,-1.60
2023-01-21T04:49:42.369Z,-1.60
2023-01-21T04:55:13.702Z,-1.62
2023-01-21T05:00:44.686Z,-1.62
2023-01-21T05:06:15.286Z,-1.63
2023-01-21T05:11:46.392Z,-1.64
2023-01-21T05:17:17.646Z,-1.63
2023-01-21T05:22:49.151Z,-1.67
2023-01-21T05:28:20.147Z,-1.65
2023-01-21T05:33:51.321Z,-1.68
2023-01-21T05:39:22.468Z,-1.70
2023-01-21T05:44:53.426Z,-1.71
2023-01-21T05:50:24.313Z,-1.71
2023-01-21T05:55:55.662Z,-1.71
2023-01-21T06:01:27.001Z,-1.72
2023-01-21T06:06:58.353Z,-1.71
2023-01-21T06:12:29.613Z,-1.73
2023-01-21T06:18:01.425Z,-1.74
2023-01-21T06:23:32.648Z,-1.76
2023-01-21T06:29:04.036Z,-1.78
2023-01-21T06:34:35.044Z,-1.78
2023-01-21T06:40:06.332Z,-1.79
2023-01-21T06:45:37.479Z,-1.79
2023-01-21T06:51:08.575Z,-1.81
2023-01-21T06:56:41.194Z,-1.82
2023-01-21T07:02:12.893Z,-1.81
2023-01-21T07:07:43.911Z,-1.83
2023-01-21T07:13:15.098Z,-1.82
2023-01-21T07:18:46.307Z,-1.81
2023-01-21T07:24:17.202Z,-1.81
2023-01-21T07:29:48.200Z,-1.81
2023-01-21T07:35:19.742Z,-1.81
2023-01-21T07:40:51.014Z,-1.82
2023-01-21T07:46:22.905Z,-1.81
2023-01-21T07:51:56.349Z,-1.81
2023-01-21T07:57:27.361Z,-1.81
2023-01-21T08:02:58.904Z,-1.80
2023-01-21T08:08:30.384Z,-1.79
2023-01-21T08:14:01.470Z,-1.80
2023-01-21T08:19:32.460Z,-1.81
2023-01-21T08:25:03.599Z,-1.79
2023-01-21T08:30:34.737Z,-1.78
2023-01-21T08:36:06.761Z,-1.80
2023-01-21T08:41:37.758Z,-1.81
2023-01-21T08:47:08.592Z,-1.81
2023-01-21T08:52:39.615Z,-1.82
2023-01-21T08:58:10.535Z,-1.79
2023-01-21T09:03:41.681Z,-1.81
2023-01-21T09:09:12.922Z,-1.80
2023-01-21T09:14:44.032Z,-1.79
2023-01-21T09:20:15.184Z,-1.78
2023-01-21T09:25:46.354Z,-1.80
2023-01-21T09:31:18.412Z,-1.82
2023-01-21T09:36:49.660Z,-1.81
2023-01-21T09:42:21.631Z,-1.81
2023-01-21T09:47:52.724Z,-1.79
2023-01-21T09:53:27.913Z,-1.78
2023-01-21T09:59:04.540Z,-1.78
2023-01-21T10:04:41.174Z,-1.79
2023-01-21T10:10:20.905Z,-1.76
2023-01-21T10:15:52.019Z,-1.77
2023-01-21T10:21:28.236Z,-1.77
2023-01-21T10:26:59.376Z,-1.72
2023-01-21T10:32:30.617Z,-1.74
2023-01-21T10:38:04.506Z,-1.74
2023-01-21T10:43:37.106Z,-1.71
2023-01-21T10:49:08.140Z,-1.68
2023-01-21T10:54:50.349Z,-1.69
2023-01-21T11:00:24.562Z,-1.67
2023-01-21T11:05:55.741Z,-1.65
2023-01-21T11:11:27.976Z,-1.64
2023-01-21T11:16:58.868Z,-1.66
2023-01-21T11:22:31.207Z,-1.65
2023-01-21T11:28:02.974Z,-1.63
2023-01-21T11:33:34.068Z,-1.65
2023-01-21T11:39:06.115Z,-1.64
2023-01-21T11:44:37.030Z,-1.63
2023-01-21T11:50:12.151Z,-1.61
2023-01-21T11:55:45.376Z,-1.61
2023-01-21T12:01:20.650Z,-1.59
2023-01-21T12:06:53.922Z,-1.59
2023-01-21T12:12:28.081Z,-1.58
2023-01-21T12:18:06.175Z,-1.58
2023-01-21T12:23:52.612Z,-1.57
2023-01-21T12:29:29.119Z,-1.57
2023-01-21T12:35:04.735Z,-1.55
2023-01-21T12:40:44.951Z,-1.54
2023-01-21T12:46:26.065Z,-1.54
2023-01-21T12:51:58.791Z,-1.51
2023-01-21T12:57:31.999Z,-1.50
2023-01-21T13:03:24.674Z,-1.49
2023-01-21T13:09:08.074Z,-1.46
2023-01-21T13:14:39.967Z,-1.41
2023-01-21T13:20:15.651Z,-1.40
2023-01-21T13:25:53.214Z,-1.41
2023-01-21T13:31:24.217Z,-1.42
2023-01-21T13:37:04.060Z,-1.43
2023-01-21T13:42:53.826Z,-1.44
2023-01-21T13:48:24.832Z,-1.44
2023-01-21T13:54:14.371Z,-1.46
2023-01-21T14:00:05.713Z,-1.44
2023-01-21T14:05:50.946Z,-1.46
2023-01-21T14:11:23.976Z,-1.48
2023-01-21T14:16:59.682Z,-1.47
2023-01-21T14:22:30.484Z,-1.45
2023-01-21T14:28:36.946Z,-1.46
2023-01-21T14:34:16.057Z,-1.45
2023-01-21T14:39:52.772Z,-1.45
2023-01-21T14:45:26.006Z,-1.43
2023-01-21T14:51:09.672Z,-1.43
2023-01-21T14:56:40.659Z,-1.45
2023-01-21T15:02:28.522Z,-1.45
2023-01-21T15:08:10.951Z,-1.46
2023-01-21T15:13:42.234Z,-1.44
2023-01-21T15:19:14.864Z,-1.47
2023-01-21T15:25:03.519Z,-1.48
2023-01-21T15:30:50.530Z,-1.47
2023-01-21T15:36:28.745Z,-1.48
2023-01-21T15:42:04.444Z,-1.46
2023-01-21T15:47:47.712Z,-1.48
2023-01-21T15:53:31.341Z,-1.48
2023-01-21T15:59:02.639Z,-1.50
2023-01-21T16:04:35.888Z,-1.50
2023-01-21T16:10:12.716Z,-1.48
2023-01-21T16:16:02.580Z,-1.48
2023-01-21T16:21:34.529Z,-1.49
2023-01-21T16:27:18.128Z,-1.48
2023-01-21T16:33:07.749Z,-1.49
2023-01-21T16:38:38.672Z,-1.51
2023-01-21T16:44:10.006Z,-1.49
2023-01-21T16:49:43.297Z,-1.48
2023-01-21T16:55:19.073Z,-1.48
2023-01-21T17:01:08.615Z,-1.47
2023-01-21T17:06:39.704Z,-1.46
2023-01-21T17:12:15.214Z,-1.46
2023-01-21T17:17:46.408Z,-1.45
2023-01-21T17:23:26.069Z,-1.46
2023-01-21T17:28:58.196Z,-1.48
2023-01-21T17:34:32.879Z,-1.49
2023-01-21T17:40:04.662Z,-1.48
2023-01-21T17:45:36.901Z,-1.47
2023-01-21T17:51:15.335Z,-1.47
2023-01-21T17:56:53.161Z,-1.48
2023-01-21T18:02:24.970Z,-1.48
2023-01-21T18:07:56.414Z,-1.47
2023-01-21T18:13:27.611Z,-1.46
2023-01-21T18:18:58.716Z,-1.45
2023-01-21T18:24:30.185Z,-1.46
2023-01-21T18:30:02.020Z,-1.47
2023-01-21T18:35:32.738Z,-1.46
2023-01-21T18:41:03.949Z,-1.44
2023-01-21T18:46:39.664Z,-1.44
2023-01-21T18:52:12.157Z,-1.42
2023-01-21T18:57:43.598Z,-1.41
2023-01-21T19:03:15.616Z,-1.42
2023-01-21T19:08:48.860Z,-1.43
2023-01-21T19:14:20.125Z,-1.43
2023-01-21T19:19:51.057Z,-1.41
2023-01-21T19:25:23.143Z,-1.42
2023-01-21T19:30:55.810Z,-1.43
2023-01-21T19:36:26.974Z,-1.40
2023-01-21T19:42:08.080Z,-1.40
2023-01-21T19:47:41.762Z,-1.37
2023-01-21T19:53:17.644Z,-1.36
2023-01-21T19:58:49.145Z,-1.35
2023-01-21T20:04:20.435Z,-1.34
2023-01-21T20:09:51.651Z,-1.36
2023-01-21T20:15:23.746Z,-1.36
2023-01-21T20:20:54.861Z,-1.37
2023-01-21T20:26:26.335Z,-1.40
2023-01-21T20:31:58.505Z,-1.41
2023-01-21T20:37:29.833Z,-1.37
2023-01-21T20:43:00.905Z,-1.36
2023-01-21T20:48:33.767Z,-1.37
2023-01-21T20:54:04.625Z,-1.37
2023-01-21T20:59:35.547Z,-1.37
2023-01-21T21:05:06.749Z,-1.37
2023-01-21T21:10:37.811Z,-1.39
2023-01-21T21:16:32.212Z,-1.40
2023-01-21T21:22:03.641Z,-1.42
2023-01-21T21:27:35.120Z,-1.46
2023-01-21T21:33:08.395Z,-1.47
2023-01-21T21:38:40.413Z,-1.50
2023-01-21T21:44:11.707Z,-1.50
2023-01-21T21:49:42.896Z,-1.48
2023-01-21T21:55:15.673Z,-1.50
2023-01-21T22:00:46.685Z,-1.54
2023-01-21T22:06:18.514Z,-1.54
2023-01-21T22:11:49.372Z,-1.56
2023-01-21T22:17:20.350Z,-1.57
2023-01-21T22:22:51.595Z,-1.56
2023-01-21T22:28:23.093Z,-1.57
2023-01-21T22:33:54.026Z,-1.58
2023-01-21T22:39:25.300Z,-1.57
2023-01-21T22:44:56.624Z,-1.58
2023-01-21T22:50:28.014Z,-1.56
2023-01-21T22:56:03.285Z,-1.56
2023-01-21T23:01:34.377Z,-1.55
2023-01-21T23:07:05.691Z,-1.56
2023-01-21T23:12:36.808Z,-1.56
2023-01-21T23:18:08.084Z,-1.57
2023-01-21T23:23:39.202Z,-1.57
2023-01-21T23:29:10.335Z,-1.57
2023-01-21T23:34:41.387Z,-1.57
2023-01-21T23:40:13.127Z,-1.56
2023-01-21T23:45:44.004Z,-1.57
2023-01-21T23:51:15.984Z,-1.58
2023-01-21T23:56:47.272Z,-1.57
